sensor_id;sensor_type;location;lat;lon;timestamp;pressure;altitude;pressure_sealevel;temperature;humidity
18755;BME280;35061;47.664;9.166;2023-02-16T00:00:19;102793.58;;;0.22;98.72
18755;BME280;35061;47.664;9.166;2023-02-16T00:02:47;102797.60;;;0.21;97.86
18755;BME280;35061;47.664;9.166;2023-02-16T00:07:54;102789.49;;;0.20;97.41
18755;BME280;35061;47.664;9.166;2023-02-16T00:10:23;102793.91;;;0.17;97.54
18755;BME280;35061;47.664;9.166;2023-02-16T00:12:52;102797.44;;;0.14;97.37
18755;BME280;35061;47.664;9.166;2023-02-16T00:15:39;102797.02;;;0.12;97.64
18755;BME280;35061;47.664;9.166;2023-02-16T00:18:25;102801.82;;;0.11;97.14
18755;BME280;35061;47.664;9.166;2023-02-16T00:20:53;102802.80;;;-0.01;96.81
18755;BME280;35061;47.664;9.166;2023-02-16T00:23:20;102795.38;;;-0.09;96.84
18755;BME280;35061;47.664;9.166;2023-02-16T00:25:48;102803.03;;;-0.09;97.62
18755;BME280;35061;47.664;9.166;2023-02-16T00:28:18;102800.22;;;-0.09;97.22
18755;BME280;35061;47.664;9.166;2023-02-16T00:30:47;102800.12;;;-0.13;97.13
18755;BME280;35061;47.664;9.166;2023-02-16T00:33:19;102802.51;;;-0.15;97.59
18755;BME280;35061;47.664;9.166;2023-02-16T00:35:47;102800.41;;;-0.18;97.53
18755;BME280;35061;47.664;9.166;2023-02-16T00:38:15;102798.71;;;-0.23;97.36
18755;BME280;35061;47.664;9.166;2023-02-16T00:40:43;102803.52;;;-0.23;97.54
18755;BME280;35061;47.664;9.166;2023-02-16T00:43:31;102798.91;;;-0.32;97.12
18755;BME280;35061;47.664;9.166;2023-02-16T00:45:59;102806.16;;;-0.31;97.41
18755;BME280;35061;47.664;9.166;2023-02-16T00:48:27;102800.67;;;-0.43;97.05
18755;BME280;35061;47.664;9.166;2023-02-16T00:50:55;102807.77;;;-0.49;97.51
18755;BME280;35061;47.664;9.166;2023-02-16T00:53:23;102808.06;;;-0.54;97.84
18755;BME280;35061;47.664;9.166;2023-02-16T00:55:51;102805.61;;;-0.56;98.06
18755;BME280;35061;47.664;9.166;2023-02-16T00:58:26;102803.98;;;-0.57;97.90
18755;BME280;35061;47.664;9.166;2023-02-16T01:01:01;102807.80;;;-0.65;97.96
18755;BME280;35061;47.664;9.166;2023-02-16T01:03:32;102807.80;;;-0.65;98.06
18755;BME280;35061;47.664;9.166;2023-02-16T01:06:00;102806.10;;;-0.70;97.64
18755;BME280;35061;47.664;9.166;2023-02-16T01:08:46;102812.48;;;-0.73;98.04
18755;BME280;35061;47.664;9.166;2023-02-16T01:11:33;102815.39;;;-0.86;98.52
18755;BME280;35061;47.664;9.166;2023-02-16T01:14:01;102819.02;;;-0.85;98.65
18755;BME280;35061;47.664;9.166;2023-02-16T01:16:36;102827.00;;;-0.87;98.35
18755;BME280;35061;47.664;9.166;2023-02-16T01:19:05;102824.58;;;-0.89;98.84
18755;BME280;35061;47.664;9.166;2023-02-16T01:21:33;102827.75;;;-0.90;99.28
18755;BME280;35061;47.664;9.166;2023-02-16T01:24:01;102820.13;;;-0.90;98.79
18755;BME280;35061;47.664;9.166;2023-02-16T01:26:31;102826.90;;;-0.91;98.72
18755;BME280;35061;47.664;9.166;2023-02-16T01:29:02;102819.94;;;-0.97;98.91
18755;BME280;35061;47.664;9.166;2023-02-16T01:31:30;102822.84;;;-0.93;99.60
18755;BME280;35061;47.664;9.166;2023-02-16T01:33:58;102818.04;;;-0.93;99.61
18755;BME280;35061;47.664;9.166;2023-02-16T01:36:30;102817.22;;;-0.93;99.31
18755;BME280;35061;47.664;9.166;2023-02-16T01:38:59;102822.45;;;-0.92;99.22
18755;BME280;35061;47.664;9.166;2023-02-16T01:41:34;102821.27;;;-0.91;99.01
18755;BME280;35061;47.664;9.166;2023-02-16T01:46:46;102810.02;;;-0.91;99.05
18755;BME280;35061;47.664;9.166;2023-02-16T01:49:17;102811.20;;;-0.92;99.05
18755;BME280;35061;47.664;9.166;2023-02-16T01:52:05;102806.76;;;-0.93;99.64
18755;BME280;35061;47.664;9.166;2023-02-16T01:54:40;102801.23;;;-0.89;99.19
18755;BME280;35061;47.664;9.166;2023-02-16T02:02:22;102795.25;;;-0.88;99.67
18755;BME280;35061;47.664;9.166;2023-02-16T02:04:54;102781.71;;;-0.82;99.57
18755;BME280;35061;47.664;9.166;2023-02-16T02:07:51;102784.23;;;-0.77;99.67
18755;BME280;35061;47.664;9.166;2023-02-16T02:13:16;102758.33;;;-0.66;99.79
18755;BME280;35061;47.664;9.166;2023-02-16T02:15:46;102760.48;;;-0.60;99.50
18755;BME280;35061;47.664;9.166;2023-02-16T02:18:14;102767.02;;;-0.55;99.17
18755;BME280;35061;47.664;9.166;2023-02-16T02:26:49;102771.60;;;-0.67;99.21
18755;BME280;35061;47.664;9.166;2023-02-16T02:29:35;102782.55;;;-0.62;99.28
18755;BME280;35061;47.664;9.166;2023-02-16T02:32:23;102774.58;;;-0.60;99.32
18755;BME280;35061;47.664;9.166;2023-02-16T02:37:49;102781.64;;;-0.50;99.47
18755;BME280;35061;47.664;9.166;2023-02-16T02:40:33;102779.02;;;-0.59;99.06
18755;BME280;35061;47.664;9.166;2023-02-16T02:43:26;102783.84;;;-0.59;99.25
18755;BME280;35061;47.664;9.166;2023-02-16T02:46:06;102781.28;;;-0.64;98.91
18755;BME280;35061;47.664;9.166;2023-02-16T02:48:36;102778.87;;;-0.66;98.74
18755;BME280;35061;47.664;9.166;2023-02-16T02:53:59;102783.67;;;-0.66;99.02
18755;BME280;35061;47.664;9.166;2023-02-16T02:57:09;102778.34;;;-0.72;99.43
18755;BME280;35061;47.664;9.166;2023-02-16T03:02:49;102771.54;;;-0.71;99.74
18755;BME280;35061;47.664;9.166;2023-02-16T03:05:21;102765.45;;;-0.73;98.93
18755;BME280;35061;47.664;9.166;2023-02-16T03:07:53;102773.89;;;-0.73;99.10
18755;BME280;35061;47.664;9.166;2023-02-16T03:10:27;102776.25;;;-0.75;99.10
18755;BME280;35061;47.664;9.166;2023-02-16T03:13:37;102783.15;;;-0.72;99.23
18755;BME280;35061;47.664;9.166;2023-02-16T03:16:11;102779.23;;;-0.67;99.48
18755;BME280;35061;47.664;9.166;2023-02-16T03:18:41;102775.98;;;-0.69;99.39
18755;BME280;35061;47.664;9.166;2023-02-16T03:21:30;102778.87;;;-0.66;99.38
18755;BME280;35061;47.664;9.166;2023-02-16T03:24:24;102769.25;;;-0.65;99.41
18755;BME280;35061;47.664;9.166;2023-02-16T03:27:13;102780.86;;;-0.66;99.56
18755;BME280;35061;47.664;9.166;2023-02-16T03:30:03;102791.39;;;-0.63;99.30
18755;BME280;35061;47.664;9.166;2023-02-16T03:32:33;102791.45;;;-0.60;99.14
18755;BME280;35061;47.664;9.166;2023-02-16T03:35:01;102788.74;;;-0.56;99.52
18755;BME280;35061;47.664;9.166;2023-02-16T03:37:29;102788.54;;;-0.47;99.97
18755;BME280;35061;47.664;9.166;2023-02-16T03:39:57;102795.41;;;-0.45;98.79
18755;BME280;35061;47.664;9.166;2023-02-16T03:42:50;102798.09;;;-0.52;98.96
18755;BME280;35061;47.664;9.166;2023-02-16T03:45:19;102794.88;;;-0.50;99.32
18755;BME280;35061;47.664;9.166;2023-02-16T03:47:48;102792.17;;;-0.47;99.32
18755;BME280;35061;47.664;9.166;2023-02-16T03:50:15;102793.05;;;-0.43;98.92
18755;BME280;35061;47.664;9.166;2023-02-16T03:52:43;102793.12;;;-0.39;99.46
18755;BME280;35061;47.664;9.166;2023-02-16T03:55:11;102788.77;;;-0.36;99.00
18755;BME280;35061;47.664;9.166;2023-02-16T03:57:39;102783.48;;;-0.38;98.69
18755;BME280;35061;47.664;9.166;2023-02-16T04:00:07;102790.83;;;-0.33;99.17
18755;BME280;35061;47.664;9.166;2023-02-16T04:02:35;102790.57;;;-0.28;98.87
18755;BME280;35061;47.664;9.166;2023-02-16T04:05:03;102788.61;;;-0.24;99.21
18755;BME280;35061;47.664;9.166;2023-02-16T04:07:30;102795.15;;;-0.20;98.85
18755;BME280;35061;47.664;9.166;2023-02-16T04:09:58;102778.30;;;-0.16;99.25
18755;BME280;35061;47.664;9.166;2023-02-16T04:12:26;102782.55;;;-0.06;99.36
18755;BME280;35061;47.664;9.166;2023-02-16T04:15:10;102785.53;;;0.01;98.62
18755;BME280;35061;47.664;9.166;2023-02-16T04:17:38;102781.52;;;0.02;98.18
18755;BME280;35061;47.664;9.166;2023-02-16T04:20:08;102783.93;;;0.04;98.21
18755;BME280;35061;47.664;9.166;2023-02-16T04:22:36;102792.47;;;0.07;98.30
18755;BME280;35061;47.664;9.166;2023-02-16T04:25:04;102799.30;;;0.06;97.79
18755;BME280;35061;47.664;9.166;2023-02-16T04:27:32;102798.88;;;0.04;97.88
18755;BME280;35061;47.664;9.166;2023-02-16T04:29:59;102816.14;;;0.03;97.72
18755;BME280;35061;47.664;9.166;2023-02-16T04:32:27;102825.33;;;-0.01;97.64
18755;BME280;35061;47.664;9.166;2023-02-16T04:34:55;102813.63;;;-0.03;97.83
18755;BME280;35061;47.664;9.166;2023-02-16T04:37:23;102818.49;;;0.01;97.48
18755;BME280;35061;47.664;9.166;2023-02-16T04:39:50;102817.48;;;-0.11;96.56
18755;BME280;35061;47.664;9.166;2023-02-16T04:42:18;102825.49;;;-0.13;97.49
18755;BME280;35061;47.664;9.166;2023-02-16T04:44:46;102829.48;;;-0.14;97.51
18755;BME280;35061;47.664;9.166;2023-02-16T04:47:14;102831.84;;;-0.16;97.67
18755;BME280;35061;47.664;9.166;2023-02-16T04:49:41;102827.85;;;-0.15;97.29
18755;BME280;35061;47.664;9.166;2023-02-16T04:52:11;102828.66;;;-0.15;97.47
18755;BME280;35061;47.664;9.166;2023-02-16T04:54:39;102824.52;;;-0.21;97.04
18755;BME280;35061;47.664;9.166;2023-02-16T04:57:07;102828.14;;;-0.20;97.32
18755;BME280;35061;47.664;9.166;2023-02-16T04:59:34;102824.58;;;-0.17;97.46
18755;BME280;35061;47.664;9.166;2023-02-16T05:02:03;102819.67;;;-0.20;97.10
18755;BME280;35061;47.664;9.166;2023-02-16T05:04:31;102826.87;;;-0.23;96.59
18755;BME280;35061;47.664;9.166;2023-02-16T05:06:58;102827.98;;;-0.28;96.45
18755;BME280;35061;47.664;9.166;2023-02-16T05:09:26;102828.34;;;-0.29;97.09
18755;BME280;35061;47.664;9.166;2023-02-16T05:11:54;102829.16;;;-0.29;97.08
18755;BME280;35061;47.664;9.166;2023-02-16T05:14:40;102823.59;;;-0.25;97.02
18755;BME280;35061;47.664;9.166;2023-02-16T05:19:44;102824.80;;;-0.26;97.10
18755;BME280;35061;47.664;9.166;2023-02-16T05:22:13;102827.62;;;-0.26;96.75
18755;BME280;35061;47.664;9.166;2023-02-16T05:24:42;102818.37;;;-0.26;96.97
18755;BME280;35061;47.664;9.166;2023-02-16T05:27:17;102815.98;;;-0.24;96.76
18755;BME280;35061;47.664;9.166;2023-02-16T05:29:45;102820.03;;;-0.22;96.59
18755;BME280;35061;47.664;9.166;2023-02-16T05:32:13;102829.22;;;-0.25;95.90
18755;BME280;35061;47.664;9.166;2023-02-16T05:34:42;102820.78;;;-0.25;96.37
18755;BME280;35061;47.664;9.166;2023-02-16T05:37:15;102833.60;;;-0.28;95.97
18755;BME280;35061;47.664;9.166;2023-02-16T05:39:44;102827.00;;;-0.35;96.31
18755;BME280;35061;47.664;9.166;2023-02-16T05:42:12;102835.89;;;-0.33;96.44
18755;BME280;35061;47.664;9.166;2023-02-16T05:44:39;102837.16;;;-0.31;96.27
18755;BME280;35061;47.664;9.166;2023-02-16T05:47:07;102840.34;;;-0.32;96.34
18755;BME280;35061;47.664;9.166;2023-02-16T05:49:35;102833.15;;;-0.30;96.27
18755;BME280;35061;47.664;9.166;2023-02-16T05:52:02;102831.25;;;-0.25;96.71
18755;BME280;35061;47.664;9.166;2023-02-16T05:54:30;102835.80;;;-0.21;96.34
18755;BME280;35061;47.664;9.166;2023-02-16T05:56:58;102837.23;;;-0.27;96.12
18755;BME280;35061;47.664;9.166;2023-02-16T05:59:26;102831.97;;;-0.29;96.34
18755;BME280;35061;47.664;9.166;2023-02-16T06:01:53;102839.23;;;-0.28;96.46
18755;BME280;35061;47.664;9.166;2023-02-16T06:04:21;102841.26;;;-0.28;96.42
18755;BME280;35061;47.664;9.166;2023-02-16T06:06:49;102844.07;;;-0.28;96.47
18755;BME280;35061;47.664;9.166;2023-02-16T06:09:17;102837.69;;;-0.25;96.67
18755;BME280;35061;47.664;9.166;2023-02-16T06:11:45;102847.86;;;-0.20;96.52
18755;BME280;35061;47.664;9.166;2023-02-16T06:14:18;102849.20;;;-0.14;96.71
18755;BME280;35061;47.664;9.166;2023-02-16T06:16:48;102833.93;;;-0.13;96.35
18755;BME280;35061;47.664;9.166;2023-02-16T06:19:17;102844.16;;;-0.05;96.63
18755;BME280;35061;47.664;9.166;2023-02-16T06:21:45;102844.63;;;-0.03;96.22
18755;BME280;35061;47.664;9.166;2023-02-16T06:24:13;102843.64;;;-0.10;95.87
18755;BME280;35061;47.664;9.166;2023-02-16T06:26:41;102850.90;;;-0.09;96.36
18755;BME280;35061;47.664;9.166;2023-02-16T06:29:09;102851.62;;;-0.12;95.92
18755;BME280;35061;47.664;9.166;2023-02-16T06:31:37;102851.95;;;-0.18;95.70
18755;BME280;35061;47.664;9.166;2023-02-16T06:34:06;102858.75;;;-0.19;96.53
18755;BME280;35061;47.664;9.166;2023-02-16T06:36:33;102862.09;;;-0.13;96.84
18755;BME280;35061;47.664;9.166;2023-02-16T06:39:01;102861.01;;;-0.08;96.89
18755;BME280;35061;47.664;9.166;2023-02-16T06:41:29;102867.94;;;-0.02;96.87
18755;BME280;35061;47.664;9.166;2023-02-16T06:44:11;102867.94;;;-0.02;96.02
18755;BME280;35061;47.664;9.166;2023-02-16T06:46:44;102877.16;;;-0.05;96.21
18755;BME280;35061;47.664;9.166;2023-02-16T06:49:14;102885.95;;;-0.07;96.26
18755;BME280;35061;47.664;9.166;2023-02-16T06:51:43;102880.73;;;-0.08;96.73
18755;BME280;35061;47.664;9.166;2023-02-16T06:54:11;102871.86;;;-0.07;96.81
18755;BME280;35061;47.664;9.166;2023-02-16T06:56:39;102873.66;;;0.02;96.94
18755;BME280;35061;47.664;9.166;2023-02-16T06:59:07;102882.66;;;0.07;96.86
18755;BME280;35061;47.664;9.166;2023-02-16T07:01:35;102888.67;;;0.06;96.90
18755;BME280;35061;47.664;9.166;2023-02-16T07:04:02;102893.22;;;-0.06;96.35
18755;BME280;35061;47.664;9.166;2023-02-16T07:06:30;102886.19;;;-0.16;97.04
18755;BME280;35061;47.664;9.166;2023-02-16T07:08:58;102893.22;;;-0.25;97.59
18755;BME280;35061;47.664;9.166;2023-02-16T07:11:26;102886.94;;;-0.19;98.28
18755;BME280;35061;47.664;9.166;2023-02-16T07:13:54;102883.90;;;-0.10;98.14
18755;BME280;35061;47.664;9.166;2023-02-16T07:16:22;102889.29;;;-0.01;98.04
18755;BME280;35061;47.664;9.166;2023-02-16T07:18:51;102890.96;;;0.00;97.80
18755;BME280;35061;47.664;9.166;2023-02-16T07:21:18;102886.58;;;0.03;97.71
18755;BME280;35061;47.664;9.166;2023-02-16T07:23:46;102895.02;;;0.03;97.52
18755;BME280;35061;47.664;9.166;2023-02-16T07:26:14;102903.02;;;0.01;97.23
18755;BME280;35061;47.664;9.166;2023-02-16T07:28:41;102911.17;;;-0.14;97.06
18755;BME280;35061;47.664;9.166;2023-02-16T07:31:12;102907.34;;;-0.22;97.50
18755;BME280;35061;47.664;9.166;2023-02-16T07:33:41;102906.10;;;-0.24;97.76
18755;BME280;35061;47.664;9.166;2023-02-16T07:36:10;102910.55;;;-0.23;97.62
18755;BME280;35061;47.664;9.166;2023-02-16T07:38:38;102912.54;;;-0.24;97.60
18755;BME280;35061;47.664;9.166;2023-02-16T07:41:08;102912.64;;;-0.20;97.73
18755;BME280;35061;47.664;9.166;2023-02-16T07:43:37;102908.72;;;-0.16;97.87
18755;BME280;35061;47.664;9.166;2023-02-16T07:46:05;102921.53;;;-0.18;97.23
18755;BME280;35061;47.664;9.166;2023-02-16T07:48:34;102917.09;;;-0.19;97.77
18755;BME280;35061;47.664;9.166;2023-02-16T07:51:01;102935.98;;;-0.20;97.69
18755;BME280;35061;47.664;9.166;2023-02-16T07:53:30;102931.15;;;-0.19;97.66
18755;BME280;35061;47.664;9.166;2023-02-16T07:55:59;102936.80;;;-0.19;97.67
18755;BME280;35061;47.664;9.166;2023-02-16T07:58:26;102935.98;;;-0.20;97.27
18755;BME280;35061;47.664;9.166;2023-02-16T08:01:10;102928.34;;;-0.19;97.57
18755;BME280;35061;47.664;9.166;2023-02-16T08:03:41;102925.42;;;-0.23;97.46
18755;BME280;35061;47.664;9.166;2023-02-16T08:06:08;102925.82;;;-0.24;97.51
18755;BME280;35061;47.664;9.166;2023-02-16T08:08:37;102918.16;;;-0.24;97.22
18755;BME280;35061;47.664;9.166;2023-02-16T08:11:24;102925.10;;;-0.21;97.59
18755;BME280;35061;47.664;9.166;2023-02-16T08:13:52;102922.25;;;-0.21;97.07
18755;BME280;35061;47.664;9.166;2023-02-16T08:16:22;102922.71;;;-0.19;97.38
18755;BME280;35061;47.664;9.166;2023-02-16T08:18:51;102918.27;;;-0.20;97.09
18755;BME280;35061;47.664;9.166;2023-02-16T08:21:21;102918.72;;;-0.18;97.05
18755;BME280;35061;47.664;9.166;2023-02-16T08:23:53;102920.00;;;-0.16;96.97
18755;BME280;35061;47.664;9.166;2023-02-16T08:26:24;102926.51;;;-0.11;96.95
18755;BME280;35061;47.664;9.166;2023-02-16T08:28:53;102927.42;;;-0.07;96.81
18755;BME280;35061;47.664;9.166;2023-02-16T08:31:25;102923.43;;;-0.06;96.55
18755;BME280;35061;47.664;9.166;2023-02-16T08:33:57;102920.95;;;-0.08;95.78
18755;BME280;35061;47.664;9.166;2023-02-16T08:36:31;102925.27;;;-0.14;96.01
18755;BME280;35061;47.664;9.166;2023-02-16T08:39:04;102923.34;;;-0.10;96.21
18755;BME280;35061;47.664;9.166;2023-02-16T08:41:35;102924.15;;;-0.09;95.71
18755;BME280;35061;47.664;9.166;2023-02-16T08:44:05;102919.41;;;-0.05;96.43
18755;BME280;35061;47.664;9.166;2023-02-16T08:46:34;102922.58;;;-0.07;95.16
18755;BME280;35061;47.664;9.166;2023-02-16T08:49:04;102930.33;;;-0.04;95.94
18755;BME280;35061;47.664;9.166;2023-02-16T08:51:35;102930.46;;;0.04;96.31
18755;BME280;35061;47.664;9.166;2023-02-16T08:54:05;102938.21;;;0.07;96.08
18755;BME280;35061;47.664;9.166;2023-02-16T08:56:35;102937.36;;;0.06;95.02
18755;BME280;35061;47.664;9.166;2023-02-16T08:59:03;102933.02;;;0.09;95.75
18755;BME280;35061;47.664;9.166;2023-02-16T09:01:30;102941.09;;;0.10;95.51
18755;BME280;35061;47.664;9.166;2023-02-16T09:03:58;102933.80;;;0.09;95.66
18755;BME280;35061;47.664;9.166;2023-02-16T09:06:26;102928.66;;;0.11;95.32
18755;BME280;35061;47.664;9.166;2023-02-16T09:08:55;102931.90;;;0.13;95.09
18755;BME280;35061;47.664;9.166;2023-02-16T09:11:23;102927.23;;;0.21;95.57
18755;BME280;35061;47.664;9.166;2023-02-16T09:13:52;102926.27;;;0.33;95.44
18755;BME280;35061;47.664;9.166;2023-02-16T09:16:21;102922.05;;;0.43;95.67
18755;BME280;35061;47.664;9.166;2023-02-16T09:18:51;102921.77;;;0.48;95.22
18755;BME280;35061;47.664;9.166;2023-02-16T09:21:21;102915.38;;;0.51;94.76
18755;BME280;35061;47.664;9.166;2023-02-16T09:23:51;102925.98;;;0.58;94.31
18755;BME280;35061;47.664;9.166;2023-02-16T09:26:22;102933.41;;;0.66;94.90
18755;BME280;35061;47.664;9.166;2023-02-16T09:28:50;102934.09;;;0.60;94.01
18755;BME280;35061;47.664;9.166;2023-02-16T09:31:22;102941.71;;;0.59;94.61
18755;BME280;35061;47.664;9.166;2023-02-16T09:33:56;102942.13;;;0.61;94.14
18755;BME280;35061;47.664;9.166;2023-02-16T09:36:24;102945.41;;;0.63;93.94
18755;BME280;35061;47.664;9.166;2023-02-16T09:38:52;102936.09;;;0.59;93.31
18755;BME280;35061;47.664;9.166;2023-02-16T09:44:25;102940.08;;;0.58;93.56
18755;BME280;35061;47.664;9.166;2023-02-16T09:47:00;102943.73;;;0.59;94.02
18755;BME280;35061;47.664;9.166;2023-02-16T09:49:36;102938.73;;;0.52;93.40
18755;BME280;35061;47.664;9.166;2023-02-16T09:54:46;102937.63;;;0.57;93.79
18755;BME280;35061;47.664;9.166;2023-02-16T10:08:53;102938.15;;;0.62;93.82
18755;BME280;35061;47.664;9.166;2023-02-16T10:14:50;102935.63;;;0.77;93.85
18755;BME280;35061;47.664;9.166;2023-02-16T10:17:56;102935.63;;;0.77;93.42
18755;BME280;35061;47.664;9.166;2023-02-16T10:20:32;102937.43;;;0.89;93.47
18755;BME280;35061;47.664;9.166;2023-02-16T10:25:46;102933.50;;;0.93;93.39
18755;BME280;35061;47.664;9.166;2023-02-16T10:28:19;102944.16;;;1.04;93.82
18755;BME280;35061;47.664;9.166;2023-02-16T10:30:52;102940.73;;;1.14;93.70
18755;BME280;35061;47.664;9.166;2023-02-16T10:33:45;102934.02;;;1.22;93.57
18755;BME280;35061;47.664;9.166;2023-02-16T10:36:40;102926.77;;;1.21;93.29
18755;BME280;35061;47.664;9.166;2023-02-16T10:39:25;102927.95;;;1.20;92.66
18755;BME280;35061;47.664;9.166;2023-02-16T10:42:01;102929.22;;;1.23;93.05
18755;BME280;35061;47.664;9.166;2023-02-16T10:44:34;102926.90;;;1.29;93.16
18755;BME280;35061;47.664;9.166;2023-02-16T10:47:05;102928.63;;;1.37;93.28
18755;BME280;35061;47.664;9.166;2023-02-16T10:49:38;102929.12;;;1.43;93.07
18755;BME280;35061;47.664;9.166;2023-02-16T10:52:06;102928.83;;;1.48;92.78
18755;BME280;35061;47.664;9.166;2023-02-16T10:54:35;102924.09;;;1.56;92.75
18755;BME280;35061;47.664;9.166;2023-02-16T10:57:05;102912.15;;;1.66;92.47
18755;BME280;35061;47.664;9.166;2023-02-16T10:59:37;102911.07;;;1.74;92.54
18755;BME280;35061;47.664;9.166;2023-02-16T11:02:18;102902.80;;;1.89;92.95
18755;BME280;35061;47.664;9.166;2023-02-16T11:04:50;102903.38;;;2.02;92.52
18755;BME280;35061;47.664;9.166;2023-02-16T11:07:24;102903.09;;;2.11;92.77
18755;BME280;35061;47.664;9.166;2023-02-16T11:09:55;102893.87;;;2.17;92.46
18755;BME280;35061;47.664;9.166;2023-02-16T11:15:02;102887.69;;;2.39;92.34
18755;BME280;35061;47.664;9.166;2023-02-16T11:17:31;102877.68;;;2.45;91.83
18755;BME280;35061;47.664;9.166;2023-02-16T11:23:12;102876.24;;;2.62;91.59
18755;BME280;35061;47.664;9.166;2023-02-16T11:25:40;102879.68;;;2.82;92.01
18755;BME280;35061;47.664;9.166;2023-02-16T11:28:09;102870.13;;;2.98;91.45
18755;BME280;35061;47.664;9.166;2023-02-16T11:30:40;102873.46;;;3.11;91.12
18755;BME280;35061;47.664;9.166;2023-02-16T11:33:21;102863.10;;;3.26;90.97
18755;BME280;35061;47.664;9.166;2023-02-16T11:35:50;102860.32;;;3.33;90.38
18755;BME280;35061;47.664;9.166;2023-02-16T11:40:56;102854.34;;;3.45;88.57
18755;BME280;35061;47.664;9.166;2023-02-16T11:43:27;102845.48;;;3.51;89.45
18755;BME280;35061;47.664;9.166;2023-02-16T11:46:16;102844.59;;;3.43;88.27
18755;BME280;35061;47.664;9.166;2023-02-16T11:48:46;102838.61;;;3.52;88.79
18755;BME280;35061;47.664;9.166;2023-02-16T11:51:15;102839.42;;;3.56;89.03
18755;BME280;35061;47.664;9.166;2023-02-16T11:54:00;102839.85;;;3.58;88.94
18755;BME280;35061;47.664;9.166;2023-02-16T11:56:33;102833.02;;;3.66;88.15
18755;BME280;35061;47.664;9.166;2023-02-16T12:10:13;102822.13;;;3.75;87.37
18755;BME280;35061;47.664;9.166;2023-02-16T12:15:38;102817.71;;;3.78;88.34
18755;BME280;35061;47.664;9.166;2023-02-16T12:21:01;102808.39;;;3.81;88.65
18755;BME280;35061;47.664;9.166;2023-02-16T12:42:54;102774.05;;;3.97;88.94
18755;BME280;35061;47.664;9.166;2023-02-16T12:45:21;102770.43;;;4.04;89.15
18755;BME280;35061;47.664;9.166;2023-02-16T12:50:47;102767.22;;;4.09;88.59
18755;BME280;35061;47.664;9.166;2023-02-16T12:53:27;102759.11;;;4.15;88.72
18755;BME280;35061;47.664;9.166;2023-02-16T12:56:02;102747.77;;;4.18;88.52
18755;BME280;35061;47.664;9.166;2023-02-16T12:58:38;102755.05;;;4.23;88.44
18755;BME280;35061;47.664;9.166;2023-02-16T13:01:15;102758.33;;;4.25;88.51
18755;BME280;35061;47.664;9.166;2023-02-16T13:04:12;102749.40;;;4.27;88.34
18755;BME280;35061;47.664;9.166;2023-02-16T13:07:04;102747.80;;;4.29;88.63
18755;BME280;35061;47.664;9.166;2023-02-16T13:09:40;102743.35;;;4.28;88.40
18755;BME280;35061;47.664;9.166;2023-02-16T13:12:35;102734.81;;;4.28;88.13
18755;BME280;35061;47.664;9.166;2023-02-16T13:15:12;102719.84;;;4.31;88.35
18755;BME280;35061;47.664;9.166;2023-02-16T13:17:46;102721.05;;;4.34;88.16
18755;BME280;35061;47.664;9.166;2023-02-16T13:20:18;102722.69;;;4.35;88.39
18755;BME280;35061;47.664;9.166;2023-02-16T13:23:26;102715.39;;;4.38;88.30
18755;BME280;35061;47.664;9.166;2023-02-16T13:29:27;102710.52;;;4.35;87.32
18755;BME280;35061;47.664;9.166;2023-02-16T13:37:34;102690.64;;;4.35;87.87
18755;BME280;35061;47.664;9.166;2023-02-16T13:40:28;102681.74;;;4.36;87.72
18755;BME280;35061;47.664;9.166;2023-02-16T13:45:40;102683.34;;;4.33;87.39
18755;BME280;35061;47.664;9.166;2023-02-16T13:48:36;102677.69;;;4.33;87.46
18755;BME280;35061;47.664;9.166;2023-02-16T13:51:10;102673.63;;;4.38;87.36
18755;BME280;35061;47.664;9.166;2023-02-16T13:53:41;102661.47;;;4.45;87.54
18755;BME280;35061;47.664;9.166;2023-02-16T13:56:30;102659.87;;;4.47;87.48
18755;BME280;35061;47.664;9.166;2023-02-16T14:01:50;102653.75;;;4.56;87.56
18755;BME280;35061;47.664;9.166;2023-02-16T14:14:31;102650.48;;;4.83;87.51
18755;BME280;35061;47.664;9.166;2023-02-16T14:30:27;102653.13;;;5.49;86.67
18755;BME280;35061;47.664;9.166;2023-02-16T14:35:46;102655.48;;;5.65;85.82
18755;BME280;35061;47.664;9.166;2023-02-16T14:41:31;102646.07;;;5.79;85.13
18755;BME280;35061;47.664;9.166;2023-02-16T15:01:15;102633.94;;;6.31;81.99
18755;BME280;35061;47.664;9.166;2023-02-16T15:03:49;102640.05;;;6.33;81.22
18755;BME280;35061;47.664;9.166;2023-02-16T15:06:29;102641.66;;;6.34;80.71
18755;BME280;35061;47.664;9.166;2023-02-16T15:09:14;102634.30;;;6.37;81.33
18755;BME280;35061;47.664;9.166;2023-02-16T15:11:55;102631.88;;;6.39;81.08
18755;BME280;35061;47.664;9.166;2023-02-16T15:15:00;102639.59;;;6.38;80.60
18755;BME280;35061;47.664;9.166;2023-02-16T15:17:38;102642.80;;;6.40;80.65
18755;BME280;35061;47.664;9.166;2023-02-16T15:20:08;102636.36;;;6.36;80.63
18755;BME280;35061;47.664;9.166;2023-02-16T15:22:37;102642.44;;;6.35;80.65
18755;BME280;35061;47.664;9.166;2023-02-16T15:25:28;102639.63;;;6.31;80.90
18755;BME280;35061;47.664;9.166;2023-02-16T15:28:02;102626.25;;;6.28;80.17
18755;BME280;35061;47.664;9.166;2023-02-16T15:30:34;102634.03;;;6.24;80.37
18755;BME280;35061;47.664;9.166;2023-02-16T15:33:05;102639.33;;;6.22;80.30
18755;BME280;35061;47.664;9.166;2023-02-16T15:35:43;102638.52;;;6.18;80.20
18755;BME280;35061;47.664;9.166;2023-02-16T15:38:23;102631.22;;;6.17;78.84
18755;BME280;35061;47.664;9.166;2023-02-16T15:40:57;102633.31;;;6.09;79.12
18755;BME280;35061;47.664;9.166;2023-02-16T15:43:36;102634.55;;;6.00;76.79
18755;BME280;35061;47.664;9.166;2023-02-16T15:46:11;102630.90;;;6.00;78.41
18755;BME280;35061;47.664;9.166;2023-02-16T15:48:40;102633.77;;;5.96;78.30
18755;BME280;35061;47.664;9.166;2023-02-16T15:51:29;102623.21;;;5.93;78.41
18755;BME280;35061;47.664;9.166;2023-02-16T15:54:00;102632.98;;;5.89;78.27
18755;BME280;35061;47.664;9.166;2023-02-16T15:56:33;102633.05;;;5.85;78.71
18755;BME280;35061;47.664;9.166;2023-02-16T15:59:27;102632.27;;;5.77;78.77
18755;BME280;35061;47.664;9.166;2023-02-16T16:02:16;102629.03;;;5.71;78.87
18755;BME280;35061;47.664;9.166;2023-02-16T16:04:54;102625.89;;;5.58;79.50
18755;BME280;35061;47.664;9.166;2023-02-16T16:07:28;102627.13;;;5.54;79.72